Time;durP1;ratioP1;P1;durP2;ratioP2;P2;SDS_P1;SDS_P2;PMS_P1;PMS_P2;Temp;Humidity;BMP_temperature;BMP_pressure;BME280_temperature;BME280_humidity;BME280_pressure;Samples;Min_cycle;Max_cycle;Signal;HPM_P1;HPM_P2
2022/05/04 00:01:46;;;;;;;6.10;3.65;;;13.60;96.00;;;;;;5002190;28;20112;-71
2022/05/04 00:04:12;;;;;;;5.97;3.60;;;13.60;95.90;;;;;;5004359;28;20057;-71
2022/05/04 00:06:38;;;;;;;7.80;3.72;;;13.60;96.30;;;;;;5004284;28;20412;-71
2022/05/04 00:09:04;;;;;;;5.38;3.47;;;13.60;96.10;;;;;;5012142;28;20209;-70
2022/05/04 00:11:29;;;;;;;6.57;3.88;;;13.40;96.40;;;;;;5001142;28;20034;-71
2022/05/04 00:13:55;;;;;;;5.45;3.70;;;13.20;96.90;;;;;;5021467;28;20088;-70
2022/05/04 00:16:21;;;;;;;7.90;4.18;;;13.20;96.80;;;;;;5003610;28;20476;-70
2022/05/04 00:18:47;;;;;;;6.05;4.03;;;13.10;97.10;;;;;;5009853;28;20539;-71
2022/05/04 00:21:13;;;;;;;6.72;4.13;;;13.10;97.10;;;;;;5007696;28;20392;-71
2022/05/04 00:23:38;;;;;;;5.75;3.22;;;13.20;97.00;;;;;;5026354;28;20030;-70
2022/05/04 00:26:04;;;;;;;6.15;3.63;;;13.20;97.00;;;;;;5010155;28;20415;-70
2022/05/04 00:28:30;;;;;;;5.38;3.65;;;13.20;96.80;;;;;;5009482;28;20065;-70
2022/05/04 00:30:56;;;;;;;7.93;3.88;;;13.20;96.90;;;;;;5005400;28;20496;-70
2022/05/04 00:33:21;;;;;;;5.80;3.80;;;13.10;97.20;;;;;;5003063;28;20038;-70
2022/05/04 00:35:47;;;;;;;7.22;4.03;;;13.00;97.40;;;;;;5006742;28;20058;-70
2022/05/04 00:38:13;;;;;;;6.43;4.10;;;13.00;97.70;;;;;;5011811;28;20030;-70
2022/05/04 00:40:38;;;;;;;6.45;3.50;;;13.00;97.40;;;;;;5006809;28;20069;-70
2022/05/04 00:43:05;;;;;;;8.07;3.75;;;13.20;97.00;;;;;;5011583;28;20045;-71
2022/05/04 00:45:31;;;;;;;6.75;3.67;;;13.20;97.00;;;;;;5006648;28;20030;-70
2022/05/04 00:47:56;;;;;;;5.00;3.45;;;13.10;97.10;;;;;;5012132;28;20391;-70
2022/05/04 00:50:22;;;;;;;5.43;3.85;;;13.20;96.90;;;;;;5006726;28;20030;-70
2022/05/04 00:52:50;;;;;;;8.15;4.45;;;13.30;96.70;;;;;;5021571;28;20033;-70
2022/05/04 00:55:18;;;;;;;7.13;3.85;;;13.50;96.50;;;;;;5009168;28;20044;-70
2022/05/04 01:00:30;;;;;;;6.05;3.80;;;13.40;96.30;;;;;;5007749;28;20053;-70
2022/05/04 01:02:56;;;;;;;7.88;3.90;;;13.50;96.20;;;;;;5007273;28;20124;-70
2022/05/04 01:05:21;;;;;;;6.30;3.38;;;13.20;97.10;;;;;;5008139;28;20073;-70
2022/05/04 01:07:47;;;;;;;7.40;3.67;;;13.10;97.20;;;;;;5011422;28;20052;-70
2022/05/04 01:10:15;;;;;;;5.40;3.53;;;13.40;96.40;;;;;;5001791;28;20040;-71
2022/05/04 01:12:54;;;;;;;5.78;3.50;;;13.40;96.40;;;;;;4999622;28;20099;-70
2022/05/04 01:15:22;;;;;;;6.15;3.45;;;13.10;97.00;;;;;;5012302;28;20036;-70
2022/05/04 01:17:48;;;;;;;6.20;4.10;;;13.10;97.00;;;;;;5005683;28;20022;-70
2022/05/04 01:20:15;;;;;;;6.05;3.50;;;13.20;97.30;;;;;;5004290;28;20037;-71
2022/05/04 01:22:40;;;;;;;6.47;3.55;;;13.20;97.00;;;;;;5014531;28;20029;-70
2022/05/04 01:25:07;;;;;;;7.25;3.65;;;13.20;96.90;;;;;;5012537;28;20240;-70
2022/05/04 01:27:33;;;;;;;6.97;3.70;;;12.70;97.80;;;;;;4999003;28;20096;-70
2022/05/04 01:29:59;;;;;;;5.45;4.00;;;12.80;97.70;;;;;;5020535;28;20037;-70
2022/05/04 01:32:25;;;;;;;6.80;3.78;;;12.70;97.80;;;;;;5007276;28;20116;-70
2022/05/04 01:34:51;;;;;;;5.25;3.72;;;12.30;98.70;;;;;;5009168;28;20485;-70
2022/05/04 01:37:17;;;;;;;5.68;3.65;;;12.30;98.80;;;;;;5022483;28;20045;-70
2022/05/04 01:39:43;;;;;;;5.97;3.80;;;12.60;98.30;;;;;;5019830;28;20027;-70
2022/05/04 01:42:16;;;;;;;9.13;3.40;;;12.70;97.90;;;;;;5001065;28;20125;-70
2022/05/04 01:44:43;;;;;;;7.80;3.80;;;12.70;98.00;;;;;;5007943;28;20045;-70
2022/05/04 01:47:10;;;;;;;5.43;3.83;;;12.50;98.30;;;;;;5008632;28;20296;-70
2022/05/04 01:49:36;;;;;;;6.38;4.28;;;12.40;98.60;;;;;;5004004;28;20049;-70
2022/05/04 01:52:02;;;;;;;5.53;4.07;;;12.20;98.90;;;;;;5007990;28;20056;-70
2022/05/04 01:54:28;;;;;;;8.27;4.43;;;12.30;98.70;;;;;;5005497;28;20644;-70
2022/05/04 01:56:54;;;;;;;6.68;3.95;;;12.20;98.70;;;;;;5004104;28;20029;-70
2022/05/04 01:59:20;;;;;;;7.43;4.35;;;12.30;98.80;;;;;;5002169;28;20038;-70
2022/05/04 02:01:46;;;;;;;5.80;3.42;;;12.20;98.70;;;;;;5006169;28;20160;-70
2022/05/04 02:04:13;;;;;;;7.30;3.58;;;12.30;98.50;;;;;;5002593;28;20058;-70
2022/05/04 02:06:39;;;;;;;5.97;4.07;;;12.20;98.50;;;;;;5011289;28;20485;-70
2022/05/04 02:09:06;;;;;;;6.75;4.05;;;12.30;98.60;;;;;;5014875;28;20219;-70
2022/05/04 02:11:33;;;;;;;5.60;3.78;;;12.50;98.50;;;;;;5009831;28;20057;-70
2022/05/04 02:14:03;;;;;;;6.47;4.45;;;12.20;99.00;;;;;;5013218;28;20038;-70
2022/05/04 02:16:29;;;;;;;7.07;4.40;;;12.20;99.30;;;;;;5010357;28;20038;-70
2022/05/04 02:18:55;;;;;;;6.35;4.47;;;12.40;98.80;;;;;;5012979;28;20065;-70
2022/05/04 02:21:21;;;;;;;6.93;4.18;;;12.40;98.50;;;;;;5011594;28;20030;-70
2022/05/04 02:23:47;;;;;;;8.38;4.50;;;12.20;99.20;;;;;;5012595;28;20092;-70
2022/05/04 02:26:12;;;;;;;6.45;3.92;;;12.30;98.90;;;;;;5011582;28;20042;-70
2022/05/04 02:28:38;;;;;;;7.13;3.97;;;12.30;99.00;;;;;;5011668;28;20060;-70
2022/05/04 02:31:04;;;;;;;5.28;3.70;;;12.50;98.40;;;;;;5006463;28;20067;-70
2022/05/04 02:33:29;;;;;;;7.38;4.22;;;12.40;98.50;;;;;;5007416;28;20034;-70
2022/05/04 02:38:40;;;;;;;6.35;3.97;;;12.40;98.70;;;;;;5008394;28;20057;-70
2022/05/04 02:41:06;;;;;;;5.90;3.72;;;12.40;98.70;;;;;;5010727;28;20425;-70
2022/05/04 02:43:32;;;;;;;7.45;3.92;;;12.40;99.00;;;;;;5012211;28;20034;-70
2022/05/04 02:46:11;;;;;;;7.80;3.88;;;12.50;98.70;;;;;;5009235;28;20353;-72
2022/05/04 02:48:36;;;;;;;5.82;3.90;;;12.60;98.50;;;;;;5030008;28;20118;-70
2022/05/04 02:51:02;;;;;;;9.23;5.82;;;12.50;98.70;;;;;;5019630;28;20391;-70
2022/05/04 02:53:28;;;;;;;6.10;3.80;;;12.60;98.60;;;;;;5006625;28;21555;-70
2022/05/04 02:55:53;;;;;;;6.43;3.90;;;12.70;98.60;;;;;;5009979;28;20025;-70
2022/05/04 02:58:19;;;;;;;6.07;4.05;;;12.70;98.40;;;;;;5009326;28;20022;-70
2022/05/04 03:00:45;;;;;;;7.05;4.20;;;12.80;98.20;;;;;;5010286;28;20186;-69
2022/05/04 03:03:10;;;;;;;7.82;4.15;;;12.70;98.40;;;;;;5003343;28;20125;-69
2022/05/04 03:05:36;;;;;;;5.68;3.78;;;12.70;98.30;;;;;;4999775;28;20022;-68
2022/05/04 03:08:02;;;;;;;7.07;3.47;;;12.80;98.30;;;;;;5007799;28;20037;-68
2022/05/04 03:10:28;;;;;;;9.35;4.18;;;12.70;98.30;;;;;;5005222;28;20053;-69
2022/05/04 03:12:53;;;;;;;6.75;3.88;;;12.60;98.70;;;;;;4985819;28;20034;-69
2022/05/04 03:15:19;;;;;;;7.53;3.97;;;12.40;99.10;;;;;;4999609;28;20533;-69
2022/05/04 03:17:45;;;;;;;7.18;4.22;;;12.50;99.30;;;;;;4995962;28;20029;-68
2022/05/04 03:20:12;;;;;;;8.52;4.07;;;12.40;99.30;;;;;;4999052;28;20080;-68
2022/05/04 03:22:38;;;;;;;6.15;4.22;;;12.40;99.40;;;;;;5007339;28;20092;-69
2022/05/04 03:25:08;;;;;;;6.13;3.75;;;12.50;99.10;;;;;;5000776;28;20030;-69
2022/05/04 03:27:35;;;;;;;8.05;5.13;;;12.50;99.10;;;;;;5003958;28;20062;-69
2022/05/04 03:30:01;;;;;;;7.00;3.88;;;12.60;99.10;;;;;;5008588;28;20088;-69
2022/05/04 03:32:26;;;;;;;6.72;4.40;;;12.60;99.20;;;;;;5006673;28;20135;-69
2022/05/04 03:34:52;;;;;;;6.63;3.78;;;12.50;99.50;;;;;;5001788;28;20037;-69
2022/05/04 03:37:18;;;;;;;8.10;4.22;;;12.40;99.60;;;;;;5008940;28;20121;-69
2022/05/04 03:39:43;;;;;;;6.00;3.47;;;12.30;99.80;;;;;;5004043;28;20042;-69
2022/05/04 03:42:12;;;;;;;5.28;3.30;;;12.30;99.90;;;;;;5004491;28;20076;-69
2022/05/04 03:44:37;;;;;;;9.85;4.07;;;12.40;99.90;;;;;;5005312;28;20038;-69
2022/05/04 03:47:03;;;;;;;7.13;4.10;;;12.50;99.80;;;;;;5008119;28;20040;-69
2022/05/04 03:49:29;;;;;;;5.80;4.05;;;12.30;99.90;;;;;;5006465;28;20113;-69
2022/05/04 03:51:56;;;;;;;8.38;3.55;;;12.40;99.90;;;;;;5005293;28;20068;-69
2022/05/04 03:54:21;;;;;;;5.80;3.80;;;12.40;99.90;;;;;;5006705;28;20625;-70
2022/05/04 03:56:47;;;;;;;9.10;4.07;;;12.40;99.90;;;;;;5005260;28;20064;-69
2022/05/04 03:59:13;;;;;;;7.03;3.83;;;12.30;99.90;;;;;;4993324;28;20062;-68
2022/05/04 04:01:39;;;;;;;7.38;3.95;;;12.20;99.90;;;;;;4996242;28;20034;-69
2022/05/04 04:04:05;;;;;;;6.57;3.97;;;12.10;99.90;;;;;;5000034;28;20033;-68
2022/05/04 04:06:32;;;;;;;5.90;3.47;;;12.20;99.90;;;;;;4999350;28;20041;-68
2022/05/04 04:08:58;;;;;;;6.47;4.22;;;12.10;99.90;;;;;;5003371;28;20122;-69
2022/05/04 04:11:23;;;;;;;6.80;3.78;;;12.10;99.90;;;;;;4999220;28;20073;-69
2022/05/04 04:13:49;;;;;;;6.78;4.55;;;12.20;99.90;;;;;;5000861;28;20031;-68
2022/05/04 04:16:16;;;;;;;5.80;4.10;;;12.30;99.90;;;;;;5002411;28;20130;-69
2022/05/04 04:18:42;;;;;;;5.10;3.42;;;12.30;99.90;;;;;;5011813;28;20475;-69
2022/05/04 04:23:51;;;;;;;5.93;4.18;;;12.50;99.90;;;;;;4998386;28;20064;-68
2022/05/04 04:26:17;;;;;;;6.63;4.88;;;12.60;99.90;;;;;;4998520;28;20524;-69
2022/05/04 04:28:43;;;;;;;10.10;4.15;;;12.50;99.90;;;;;;5003837;28;20041;-69
2022/05/04 04:31:09;;;;;;;9.55;4.95;;;12.50;99.90;;;;;;5002157;28;20038;-69
2022/05/04 04:33:36;;;;;;;6.18;4.05;;;12.50;99.90;;;;;;4999805;28;20034;-69
2022/05/04 04:36:03;;;;;;;8.10;4.47;;;12.60;99.90;;;;;;4998829;28;20644;-68
2022/05/04 04:38:29;;;;;;;7.00;4.43;;;12.70;99.90;;;;;;5001973;28;20046;-68
2022/05/04 04:40:55;;;;;;;7.32;3.47;;;12.60;99.30;;;;;;4999107;28;20064;-68
2022/05/04 04:43:21;;;;;;;7.55;4.63;;;12.70;99.10;;;;;;5004157;28;20052;-69
2022/05/04 04:45:48;;;;;;;7.43;4.18;;;12.70;99.90;;;;;;5002314;28;20030;-69
2022/05/04 04:48:16;;;;;;;7.32;4.10;;;12.60;99.90;;;;;;4993404;28;20119;-70
2022/05/04 04:50:46;;;;;;;5.40;3.83;;;12.60;99.90;;;;;;4979203;28;20035;-70
2022/05/04 04:53:14;;;;;;;7.93;4.40;;;12.60;99.90;;;;;;4987083;28;20037;-68
2022/05/04 04:55:41;;;;;;;7.07;4.55;;;12.60;99.90;;;;;;5001362;28;20065;-68
2022/05/04 04:58:07;;;;;;;5.93;3.60;;;12.60;99.90;;;;;;5004027;28;20112;-70
2022/05/04 05:00:32;;;;;;;6.97;3.88;;;12.70;99.90;;;;;;4998685;28;20061;-69
2022/05/04 05:02:58;;;;;;;7.30;4.75;;;12.70;99.90;;;;;;4984022;28;20062;-68
2022/05/04 05:05:24;;;;;;;11.52;4.55;;;12.80;99.90;;;;;;5000757;28;20033;-69
2022/05/04 05:07:49;;;;;;;6.80;4.00;;;12.80;99.60;;;;;;4978032;28;20046;-69
2022/05/04 05:10:15;;;;;;;7.30;4.75;;;12.90;99.30;;;;;;4981598;28;20044;-69
2022/05/04 05:12:40;;;;;;;7.25;4.45;;;12.90;99.50;;;;;;4996997;28;20049;-69
2022/05/04 05:17:51;;;;;;;6.05;3.80;;;12.80;99.90;;;;;;5002306;28;20148;-69
2022/05/04 05:20:18;;;;;;;6.70;4.43;;;12.80;99.90;;;;;;5006338;28;20129;-70
2022/05/04 05:22:43;;;;;;;6.68;4.43;;;12.90;99.90;;;;;;4999253;28;20108;-68
2022/05/04 05:25:09;;;;;;;6.45;4.38;;;12.80;99.90;;;;;;4992679;28;20041;-69
2022/05/04 05:27:35;;;;;;;6.47;3.67;;;12.70;99.90;;;;;;5003702;28;20052;-69
2022/05/04 05:30:01;;;;;;;9.48;5.57;;;12.80;99.40;;;;;;5001775;28;20112;-69
2022/05/04 05:32:27;;;;;;;10.73;4.50;;;12.90;99.90;;;;;;4999617;28;20098;-69
2022/05/04 05:34:52;;;;;;;11.88;5.28;;;12.70;99.90;;;;;;4994335;28;20092;-69
2022/05/04 05:37:20;;;;;;;8.88;4.07;;;12.90;99.90;;;;;;5001568;28;20038;-69
2022/05/04 05:39:46;;;;;;;6.20;4.40;;;12.80;99.90;;;;;;4996275;28;20045;-70
2022/05/04 05:42:12;;;;;;;9.88;4.32;;;12.80;99.90;;;;;;4994500;28;20029;-68
2022/05/04 05:44:38;;;;;;;5.95;4.03;;;12.80;99.90;;;;;;4997079;28;20025;-69
2022/05/04 05:47:04;;;;;;;7.25;4.60;;;12.70;99.90;;;;;;4982434;28;20902;-69
2022/05/04 05:49:30;;;;;;;9.05;4.93;;;12.90;99.90;;;;;;4979377;28;20091;-69
2022/05/04 05:51:57;;;;;;;6.65;4.45;;;13.00;99.90;;;;;;4980349;28;20057;-69
2022/05/04 05:54:22;;;;;;;6.90;4.60;;;13.10;99.90;;;;;;4981082;28;20092;-69
2022/05/04 05:56:48;;;;;;;7.40;4.95;;;13.20;99.90;;;;;;4984460;28;20598;-70
2022/05/04 05:59:14;;;;;;;7.05;4.72;;;13.20;99.90;;;;;;4993709;28;20469;-69
2022/05/04 06:01:40;;;;;;;7.10;4.20;;;13.20;99.90;;;;;;4984771;28;20126;-69
2022/05/04 06:04:05;;;;;;;7.72;4.35;;;13.40;99.20;;;;;;4988865;28;20468;-69
2022/05/04 06:06:31;;;;;;;10.13;5.47;;;13.60;99.80;;;;;;4975453;28;20188;-69
2022/05/04 06:08:57;;;;;;;11.88;5.47;;;13.70;99.90;;;;;;4980542;28;20124;-69
2022/05/04 06:11:23;;;;;;;9.20;4.82;;;13.70;99.90;;;;;;4978544;28;20117;-68
2022/05/04 06:13:52;;;;;;;9.02;4.85;;;13.90;99.90;;;;;;4981758;28;20088;-69
2022/05/04 06:16:19;;;;;;;8.43;4.40;;;14.00;99.90;;;;;;4992282;28;20113;-69
2022/05/04 06:18:44;;;;;;;7.75;4.78;;;14.00;99.90;;;;;;4995231;28;20200;-69
2022/05/04 06:21:10;;;;;;;7.03;4.35;;;14.20;99.90;;;;;;5000748;28;20555;-68
2022/05/04 06:23:36;;;;;;;10.07;4.30;;;14.10;99.70;;;;;;4991256;28;20030;-69
2022/05/04 06:26:01;;;;;;;8.77;4.65;;;14.00;99.20;;;;;;4994054;28;20042;-69
2022/05/04 06:28:27;;;;;;;5.72;4.43;;;13.90;99.10;;;;;;4991708;28;20041;-69
2022/05/04 06:36:21;;;;;;;9.15;3.95;;;14.00;99.90;;;;;;4997152;28;20644;-68
2022/05/04 06:38:47;;;;;;;6.65;4.10;;;14.10;99.80;;;;;;5001840;28;20029;-69
2022/05/04 06:41:14;;;;;;;7.20;4.32;;;14.20;99.30;;;;;;5002249;28;20034;-68
2022/05/04 06:43:40;;;;;;;6.88;3.42;;;14.40;99.30;;;;;;4999571;28;20033;-68
2022/05/04 06:46:06;;;;;;;6.60;3.97;;;14.60;98.50;;;;;;5001544;28;20500;-68
2022/05/04 06:48:32;;;;;;;6.38;4.07;;;14.70;98.00;;;;;;4997774;28;20033;-68
2022/05/04 06:50:58;;;;;;;7.22;3.50;;;14.80;97.30;;;;;;4998981;28;20197;-69
2022/05/04 06:53:23;;;;;;;5.05;3.38;;;14.90;96.90;;;;;;5001755;28;20044;-69
2022/05/04 06:55:49;;;;;;;7.20;4.07;;;14.90;96.70;;;;;;4998981;28;20041;-69
2022/05/04 06:58:15;;;;;;;7.13;3.95;;;15.00;97.20;;;;;;4997659;28;20025;-69
2022/05/04 07:00:40;;;;;;;10.50;4.18;;;15.20;97.10;;;;;;5002634;28;20033;-69
2022/05/04 07:03:06;;;;;;;12.13;4.80;;;15.80;96.60;;;;;;5000052;28;20065;-70
2022/05/04 07:05:32;;;;;;;10.30;3.78;;;16.20;96.90;;;;;;5005319;28;20061;-69
2022/05/04 07:07:58;;;;;;;6.45;3.70;;;16.40;95.80;;;;;;5003426;28;20480;-69
2022/05/04 07:10:24;;;;;;;5.03;3.35;;;16.10;94.70;;;;;;5000869;28;20338;-69
2022/05/04 07:12:50;;;;;;;7.00;3.35;;;15.70;95.20;;;;;;5005341;28;20042;-69
2022/05/04 07:15:16;;;;;;;6.55;3.65;;;16.30;94.50;;;;;;5002764;28;20121;-69
2022/05/04 07:17:42;;;;;;;4.90;2.90;;;16.20;94.80;;;;;;5005179;28;20057;-69
2022/05/04 07:20:09;;;;;;;5.20;3.28;;;17.10;93.40;;;;;;5003298;28;20042;-69
2022/05/04 07:22:34;;;;;;;6.78;3.63;;;17.00;93.00;;;;;;5002825;28;20117;-69
2022/05/04 07:25:00;;;;;;;6.40;2.80;;;16.80;93.30;;;;;;4996989;28;20125;-69
2022/05/04 07:27:26;;;;;;;6.32;3.20;;;16.90;93.00;;;;;;5000800;28;20099;-69
2022/05/04 07:29:52;;;;;;;7.13;3.45;;;18.90;91.70;;;;;;5000725;28;20064;-69
2022/05/04 07:32:17;;;;;;;5.57;3.42;;;19.00;90.30;;;;;;4997647;28;20454;-69
2022/05/04 07:34:43;;;;;;;6.05;3.53;;;18.50;90.90;;;;;;4994459;28;20045;-70
2022/05/04 07:37:09;;;;;;;6.20;3.63;;;18.30;92.00;;;;;;4996414;28;20174;-70
2022/05/04 07:42:26;;;;;;;6.22;3.45;;;16.80;92.70;;;;;;5004827;28;20080;-69
2022/05/04 07:45:11;;;;;;;13.23;3.72;;;16.60;93.30;;;;;;5005306;28;20357;-70
2022/05/04 07:47:38;;;;;;;7.15;3.60;;;17.40;92.90;;;;;;4998185;28;20046;-69
2022/05/04 07:50:06;;;;;;;8.48;3.42;;;16.90;93.50;;;;;;5005275;28;20034;-69
2022/05/04 07:52:32;;;;;;;7.13;3.33;;;16.70;93.60;;;;;;5005580;28;20089;-69
2022/05/04 07:54:58;;;;;;;5.78;3.47;;;16.60;93.90;;;;;;5004961;28;20434;-70
2022/05/04 07:57:24;;;;;;;7.00;3.70;;;16.40;94.10;;;;;;5001764;28;20042;-69
2022/05/04 08:05:21;;;;;;;6.03;3.47;;;16.30;93.80;;;;;;4990226;28;20041;-69
2022/05/04 08:07:47;;;;;;;7.20;4.03;;;16.50;93.40;;;;;;4983232;28;20046;-69
2022/05/04 08:10:13;;;;;;;7.50;4.20;;;16.40;93.90;;;;;;4985484;28;20263;-70
2022/05/04 08:12:39;;;;;;;7.40;4.20;;;16.70;93.90;;;;;;4993778;28;20468;-69
2022/05/04 08:15:05;;;;;;;6.38;3.78;;;16.90;93.80;;;;;;4987431;28;21199;-70
2022/05/04 08:17:31;;;;;;;8.43;4.22;;;16.90;93.40;;;;;;4980336;28;20049;-69
2022/05/04 08:19:58;;;;;;;6.82;3.50;;;17.00;93.30;;;;;;4981177;28;20066;-70
2022/05/04 08:22:24;;;;;;;5.32;3.40;;;16.90;94.10;;;;;;4981728;28;20034;-69
2022/05/04 08:24:49;;;;;;;6.05;3.85;;;16.70;93.70;;;;;;4980666;28;20026;-69
2022/05/04 08:27:15;;;;;;;9.05;4.13;;;16.90;94.10;;;;;;5003880;28;20103;-69
2022/05/04 08:29:41;;;;;;;8.73;3.70;;;17.10;94.40;;;;;;4998238;28;20030;-69
2022/05/04 08:32:07;;;;;;;7.03;3.75;;;16.80;93.80;;;;;;4999118;28;20433;-70
2022/05/04 08:34:32;;;;;;;8.02;3.88;;;16.80;94.30;;;;;;4997074;28;20518;-69
2022/05/04 08:36:58;;;;;;;6.22;3.33;;;16.90;94.50;;;;;;5004017;28;20038;-69
2022/05/04 08:39:24;;;;;;;6.63;4.07;;;17.00;94.10;;;;;;5004849;28;20037;-69
2022/05/04 08:41:51;;;;;;;5.65;3.70;;;16.80;93.80;;;;;;5004144;28;20040;-69
2022/05/04 08:44:17;;;;;;;5.75;3.60;;;17.10;94.20;;;;;;5003002;28;20037;-69
2022/05/04 08:46:44;;;;;;;7.57;3.83;;;17.20;93.70;;;;;;5004007;28;20025;-69
2022/05/04 08:49:12;;;;;;;9.93;3.83;;;17.10;93.70;;;;;;5002353;28;20042;-69
2022/05/04 08:51:39;;;;;;;7.22;3.97;;;17.10;94.10;;;;;;5003951;28;20140;-69
2022/05/04 08:54:07;;;;;;;9.35;4.40;;;17.00;94.00;;;;;;5002827;28;20064;-69
2022/05/04 08:56:36;;;;;;;7.55;4.40;;;16.90;94.10;;;;;;5003832;28;20042;-69
2022/05/04 08:59:03;;;;;;;7.30;4.75;;;17.10;94.40;;;;;;4994345;28;20034;-69
2022/05/04 09:01:31;;;;;;;6.80;3.80;;;17.10;94.00;;;;;;4993141;28;20030;-69
2022/05/04 09:03:59;;;;;;;8.68;4.18;;;17.10;94.60;;;;;;5009521;28;20034;-69
2022/05/04 09:06:30;;;;;;;8.57;4.00;;;17.10;94.30;;;;;;4999419;28;20144;-69
2022/05/04 09:09:03;;;;;;;7.55;3.78;;;17.10;94.30;;;;;;5003262;28;20079;-69
2022/05/04 09:11:32;;;;;;;9.80;4.30;;;17.30;94.70;;;;;;5003881;28;20034;-69
2022/05/04 09:13:58;;;;;;;7.13;3.72;;;17.30;94.20;;;;;;5003606;28;20241;-69
2022/05/04 09:16:34;;;;;;;6.43;3.55;;;17.30;94.40;;;;;;5000209;28;20500;-69
2022/05/04 09:19:01;;;;;;;8.25;3.83;;;17.40;94.50;;;;;;5003223;28;20487;-69
2022/05/04 09:21:27;;;;;;;9.45;4.03;;;17.40;94.50;;;;;;5003396;28;20456;-69
2022/05/04 09:23:53;;;;;;;9.63;4.22;;;17.50;94.30;;;;;;5000542;28;20094;-69
2022/05/04 09:26:22;;;;;;;7.63;3.70;;;17.30;93.60;;;;;;5001685;28;20037;-69
2022/05/04 09:28:50;;;;;;;9.18;4.00;;;17.30;94.20;;;;;;5002245;28;20034;-70
2022/05/04 09:31:18;;;;;;;7.10;4.32;;;17.50;94.50;;;;;;5001740;28;20057;-69
2022/05/04 09:33:51;;;;;;;7.10;3.95;;;17.50;94.60;;;;;;5002895;28;20040;-69
2022/05/04 09:36:29;;;;;;;9.95;4.53;;;17.60;94.70;;;;;;5004581;28;20030;-69
2022/05/04 09:47:20;;;;;;;9.55;4.18;;;17.70;94.20;;;;;;5004939;28;20187;-69
2022/05/04 09:49:50;;;;;;;6.70;3.97;;;17.80;94.10;;;;;;5013096;28;20631;-69
2022/05/04 09:52:22;;;;;;;7.05;4.22;;;18.00;94.50;;;;;;5006182;28;20065;-69
2022/05/04 09:54:47;;;;;;;6.50;3.95;;;18.00;93.90;;;;;;5005926;28;20041;-69
2022/05/04 09:57:14;;;;;;;8.93;3.83;;;17.90;93.80;;;;;;4998715;28;20025;-69
2022/05/04 09:59:42;;;;;;;12.73;3.78;;;18.10;93.20;;;;;;4996564;28;20052;-69
2022/05/04 10:02:09;;;;;;;5.25;3.00;;;18.40;93.10;;;;;;5004690;28;20219;-69
2022/05/04 10:04:36;;;;;;;6.57;3.00;;;18.30;92.50;;;;;;5002511;28;20079;-69
2022/05/04 10:07:03;;;;;;;8.10;2.85;;;18.70;92.10;;;;;;5004246;28;20046;-69
2022/05/04 10:09:30;;;;;;;5.55;2.50;;;18.90;90.30;;;;;;5004448;28;20109;-69
2022/05/04 10:11:59;;;;;;;7.55;2.33;;;18.80;90.20;;;;;;5003936;28;20165;-69
2022/05/04 10:14:26;;;;;;;6.90;2.95;;;18.90;89.70;;;;;;5013325;28;20056;-69
2022/05/04 10:17:02;;;;;;;3.90;1.75;;;18.90;87.80;;;;;;5025327;28;20610;-69
2022/05/04 10:19:47;;;;;;;4.72;2.25;;;19.20;87.60;;;;;;5025217;28;20034;-69
2022/05/04 10:22:20;;;;;;;4.25;2.22;;;19.30;87.40;;;;;;5025734;28;20034;-69
2022/05/04 10:24:47;;;;;;;6.47;3.42;;;19.10;87.90;;;;;;5029602;28;20108;-70
2022/05/04 10:27:22;;;;;;;5.47;3.08;;;19.40;88.90;;;;;;5007913;28;20030;-69
2022/05/04 10:32:36;;;;;;;6.45;2.55;;;19.60;87.90;;;;;;5000476;28;20383;-69
2022/05/04 10:35:21;;;;;;;3.65;2.17;;;19.40;87.50;;;;;;5002923;28;20457;-70
2022/05/04 10:37:59;;;;;;;4.15;2.33;;;19.30;87.20;;;;;;4999031;28;20157;-69
2022/05/04 10:40:32;;;;;;;6.00;2.58;;;19.50;87.10;;;;;;5005977;28;20061;-69
2022/05/04 10:43:18;;;;;;;3.97;2.03;;;19.60;86.30;;;;;;5006694;28;20042;-69
2022/05/04 10:45:46;;;;;;;3.15;1.90;;;19.40;85.50;;;;;;5006612;28;20136;-69
2022/05/04 10:48:22;;;;;;;4.15;1.77;;;19.30;85.80;;;;;;4997615;28;20173;-69
2022/05/04 10:50:51;;;;;;;4.70;2.20;;;19.00;87.70;;;;;;4994031;28;20062;-70
2022/05/04 10:53:30;;;;;;;4.10;2.17;;;19.00;88.70;;;;;;4983164;28;20034;-69
2022/05/04 10:56:05;;;;;;;6.50;2.13;;;19.10;89.60;;;;;;4983773;28;20023;-69
2022/05/04 10:58:30;;;;;;;4.68;2.33;;;19.00;89.60;;;;;;4982830;28;20555;-69
2022/05/04 11:01:11;;;;;;;5.57;2.08;;;19.20;90.40;;;;;;4984893;28;20113;-70
2022/05/04 11:03:48;;;;;;;6.45;2.00;;;19.50;88.70;;;;;;4988892;28;20140;-69
2022/05/04 11:06:26;;;;;;;4.05;1.88;;;19.70;88.30;;;;;;4983919;28;20496;-70
2022/05/04 11:08:52;;;;;;;3.92;1.92;;;19.80;86.60;;;;;;4984547;28;20033;-70
2022/05/04 11:11:22;;;;;;;3.88;2.00;;;19.90;87.90;;;;;;4983301;28;20108;-70
2022/05/04 11:13:48;;;;;;;4.82;2.30;;;20.10;88.10;;;;;;4978132;28;20033;-70
2022/05/04 11:16:17;;;;;;;4.13;2.17;;;20.60;88.20;;;;;;4988416;28;20465;-69
2022/05/04 11:18:42;;;;;;;7.10;2.55;;;20.70;87.90;;;;;;4989982;28;20021;-70
2022/05/04 11:21:12;;;;;;;5.30;2.17;;;20.70;88.30;;;;;;4996013;28;20358;-70
2022/05/04 11:23:39;;;;;;;3.92;2.03;;;20.60;87.00;;;;;;4986625;28;20070;-70
2022/05/04 11:26:05;;;;;;;4.80;2.03;;;20.60;87.50;;;;;;4979836;28;20043;-70
2022/05/04 11:28:33;;;;;;;7.80;2.45;;;20.50;86.20;;;;;;4984806;28;20096;-70
2022/05/04 11:30:58;;;;;;;3.03;1.63;;;20.20;84.20;;;;;;4986159;28;20550;-69
2022/05/04 11:33:24;;;;;;;3.65;1.98;;;20.10;86.00;;;;;;5001309;28;20049;-69
2022/05/04 11:35:54;;;;;;;6.50;3.58;;;19.70;87.10;;;;;;5005587;28;20080;-69
2022/05/04 11:38:22;;;;;;;3.22;1.77;;;19.60;87.50;;;;;;5003703;28;20038;-70
2022/05/04 11:40:49;;;;;;;5.50;1.92;;;19.60;86.40;;;;;;5003684;28;20034;-70
2022/05/04 11:43:42;;;;;;;3.72;2.22;;;19.60;86.20;;;;;;5005267;28;20029;-70
2022/05/04 11:46:10;;;;;;;5.40;2.58;;;20.00;90.80;;;;;;4995835;28;20052;-69
2022/05/04 11:48:44;;;;;;;6.65;2.20;;;19.90;91.10;;;;;;5005317;28;20030;-69
2022/05/04 11:51:12;;;;;;;4.40;2.53;;;19.50;93.10;;;;;;4998928;28;20585;-69
2022/05/04 11:53:38;;;;;;;5.18;2.17;;;19.70;93.80;;;;;;5021250;28;20141;-70
2022/05/04 11:56:06;;;;;;;4.75;2.40;;;19.80;94.00;;;;;;4990677;28;20053;-69
2022/05/04 11:58:34;;;;;;;3.88;2.35;;;19.70;93.60;;;;;;5002928;28;20042;-70
2022/05/04 12:01:01;;;;;;;8.80;2.95;;;20.10;94.10;;;;;;5004505;28;20065;-70
2022/05/04 12:03:29;;;;;;;5.32;2.63;;;20.30;93.70;;;;;;4992720;28;20042;-70
2022/05/04 12:05:56;;;;;;;4.15;2.38;;;20.60;92.80;;;;;;4996310;28;20103;-70
2022/05/04 12:08:22;;;;;;;5.93;2.80;;;20.80;91.00;;;;;;5003645;28;20053;-70
2022/05/04 12:10:49;;;;;;;6.40;2.90;;;20.80;91.40;;;;;;5005618;28;20061;-70
2022/05/04 12:13:21;;;;;;;4.43;2.80;;;20.80;91.10;;;;;;5003540;28;20117;-70
2022/05/04 12:15:49;;;;;;;3.30;2.30;;;20.70;89.40;;;;;;5005683;28;20026;-70
2022/05/04 12:18:15;;;;;;;5.45;2.67;;;20.70;90.20;;;;;;5002432;28;20096;-70
2022/05/04 12:20:44;;;;;;;6.10;2.83;;;20.70;88.80;;;;;;4979642;28;20242;-69
2022/05/04 12:23:11;;;;;;;4.22;2.47;;;20.60;88.20;;;;;;4978098;28;20038;-70
2022/05/04 12:25:39;;;;;;;5.05;2.53;;;20.60;87.20;;;;;;4990832;28;20034;-69
2022/05/04 12:28:05;;;;;;;4.63;2.80;;;20.70;87.30;;;;;;5005647;28;20080;-69
2022/05/04 12:33:15;;;;;;;6.05;3.13;;;20.50;85.90;;;;;;5005683;28;20049;-70
2022/05/04 12:35:45;;;;;;;4.05;2.45;;;20.60;86.10;;;;;;5000220;28;20034;-69
2022/05/04 12:38:15;;;;;;;5.80;2.30;;;20.80;84.10;;;;;;5004251;28;20472;-70
2022/05/04 12:40:41;;;;;;;6.63;2.58;;;20.50;84.90;;;;;;5005055;28;20038;-70
2022/05/04 12:43:07;;;;;;;4.95;2.60;;;20.50;85.80;;;;;;5002141;28;20472;-70
2022/05/04 12:45:35;;;;;;;5.55;2.60;;;20.50;85.70;;;;;;5002781;28;20034;-70
2022/05/04 12:48:01;;;;;;;4.80;2.38;;;20.40;84.90;;;;;;4995951;28;20092;-70
2022/05/04 12:50:29;;;;;;;9.05;4.70;;;20.30;84.50;;;;;;5004894;28;20030;-69
2022/05/04 12:52:55;;;;;;;4.53;3.05;;;20.30;85.80;;;;;;5003708;28;20172;-70
2022/05/04 12:56:45;;;;;;;7.20;2.67;;;20.40;87.60;;;;;;4996020;28;21555;-70
2022/05/04 12:58:08;;;;;;;4.43;2.60;;;20.30;88.00;;;;;;4992135;28;20035;-70
2022/05/04 13:00:34;;;;;;;11.25;3.47;;;20.10;89.80;;;;;;5000970;28;20026;-70
2022/05/04 13:03:00;;;;;;;5.47;2.90;;;20.50;90.10;;;;;;5001647;28;20096;-70
2022/05/04 13:05:26;;;;;;;5.75;3.33;;;20.20;89.10;;;;;;4995369;28;20030;-69
2022/05/04 13:07:52;;;;;;;4.75;2.97;;;20.10;90.90;;;;;;4997656;28;20389;-70
2022/05/04 13:10:18;;;;;;;5.10;2.70;;;19.80;90.30;;;;;;5001358;28;20030;-69
2022/05/04 13:12:44;;;;;;;5.63;2.55;;;19.40;90.90;;;;;;5004600;28;20033;-69
2022/05/04 13:15:10;;;;;;;6.82;2.92;;;19.00;90.80;;;;;;5004223;28;20037;-69
2022/05/04 13:17:36;;;;;;;8.98;3.40;;;18.50;91.80;;;;;;5004257;28;20742;-69
2022/05/04 13:20:03;;;;;;;20.70;5.93;;;18.20;92.50;;;;;;5000936;28;20049;-70
2022/05/04 13:22:28;;;;;;;15.45;5.40;;;17.90;93.50;;;;;;4995984;28;20164;-69
2022/05/04 13:24:55;;;;;;;10.35;3.85;;;17.70;94.30;;;;;;5003399;28;20182;-69